Urb Portofino, Puerto Rico
Current Conditions -  °F | °C
As of 2:50 PM on Tuesday 27 Jan 2015 (Local Time) from TJPS Reporting Station
Broken Clouds Broken Clouds  
Wind Chill: 84°   Ceiling: 6000
Heat Index: 92°   Visibility: 10mi
Dew Point: 75°   Wind: 12mph
Humidity: 74%   Direction: 170°S
Pressure: 29.94"   Gusts: NA
Location:  18.4259°N, 66.4717°W
Report Text: TJPS 271850Z 17010KT 10SM FEW020 BKN060 29/24 A2994
Loading
Personal Weather Stations






























Interactive Weather Map New forecast layout! Learn more

10-Day Weather Forecast

Advertisements
Track Severe Weather on mobile